Portada
METAR-TAF:

METAR-TAF

Aeroports :

Aeroport Internacional de Hong Kong

Hong Kong, Xina

latitud: 22-19N, longitud: 113-55E, altitud: 9 m

Observació

L'informe es va fer fa 27 minuts, a les 10:00 UTC
Vent 6 kt del Nord, variant entre Nord/Nord-Oest i Nord-Est
Temperatura 25°C
Humitat 74%
Pressió 1017 hPa
Visibilitat 10 km o més
Escasses núvols a una alçada de 2800 ft

METAR: VHHH 291000Z 01006KT 340V040 9999 FEW028 25/20 Q1017 NOSIG

Hora: 18:27 (10:27 UTC)

Pronòstic

L'informe es va fer fa 5 hores i 27 minuts, a les 05:00 UTC
Pronòstic vàlid del 29 a les 06 UTC al 30 a les 12 UTC
Vent 10 kt del Nord-Est
Visibilitat 10 km o més
Escasses núvols a una alçada de 2500 ft
Núvols disperses a una alçada de 4000 ft
Temporalment
l' 30 a les 04 UTC al 30 a les 10 UTC
Vent 10 kt del Oest/Nord-Oest

TAF: VHHH 290500Z 2906/3012 05010KT 9999 FEW025 SCT040 TX27/2906Z TX28/3006Z TN22/2923Z TEMPO 3004/3010 30010KT

Observacions i pronòstics meteorològics de més de 4000 aeroports (METAR i TAF).

Les estacions disponibles són els punts grocs i vermells al mapa.

Posi el ratolí al punt desitjat per veure el nom de l'estació.

Feu clic per veure les observacions i els pronòstics meteorològics.

Per canviar el mapa: feu clic els botons verds amb una creu de color negre per apropar; al botó verd amb un guió per allunyar la imatge; o en les fletxes verdes per a mapes adjacents.


METAR-TAF: